Time;durP1;ratioP1;P1;durP2;ratioP2;P2;SDS_P1;SDS_P2;PMS_P1;PMS_P2;Temp;Humidity;BMP_temperature;BMP_pressure;BME280_temperature;BME280_humidity;BME280_pressure;Samples;Min_cycle;Max_cycle;Signal;HPM_P1;HPM_P2
2023/08/02 00:00:57;;;;;;;101.32;66.45;;;27.60;99.90;;;;;;5039387;28;20060;-65
2023/08/02 00:03:24;;;;;;;79.68;49.03;;;27.60;99.90;;;;;;5034621;28;20437;-65
2023/08/02 00:05:55;;;;;;;71.82;43.47;;;27.60;99.90;;;;;;5034611;28;20025;-64
2023/08/02 00:08:23;;;;;;;75.45;48.58;;;27.60;99.90;;;;;;5034580;28;20386;-63
2023/08/02 00:10:49;;;;;;;68.22;47.80;;;27.60;99.90;;;;;;5034744;28;20022;-65
2023/08/02 00:13:16;;;;;;;66.82;43.28;;;27.60;99.90;;;;;;5034601;28;20478;-65
2023/08/02 00:15:43;;;;;;;66.82;39.80;;;27.60;99.90;;;;;;5034256;28;20109;-66
2023/08/02 00:18:09;;;;;;;56.25;37.45;;;27.60;99.90;;;;;;5034513;28;20029;-67
2023/08/02 00:20:38;;;;;;;48.58;34.03;;;27.70;99.90;;;;;;5034480;28;20453;-64
2023/08/02 00:23:06;;;;;;;56.33;39.20;;;27.70;99.90;;;;;;5034015;28;20022;-65
2023/08/02 00:25:33;;;;;;;58.20;37.60;;;27.70;99.90;;;;;;5034167;28;20025;-65
2023/08/02 00:27:59;;;;;;;72.10;40.67;;;27.70;99.90;;;;;;5034031;28;20105;-64
2023/08/02 00:30:26;;;;;;;68.22;42.08;;;27.80;99.90;;;;;;5034020;28;20109;-65
2023/08/02 00:32:53;;;;;;;66.70;40.35;;;27.70;99.90;;;;;;5033946;28;20040;-64
2023/08/02 00:35:19;;;;;;;95.45;60.90;;;27.70;99.90;;;;;;5036923;28;20453;-65
2023/08/02 00:37:46;;;;;;;103.55;71.05;;;27.70;99.90;;;;;;5053804;28;20029;-65
2023/08/02 00:40:13;;;;;;;75.20;48.33;;;27.60;99.90;;;;;;5033829;28;20550;-64
2023/08/02 00:42:39;;;;;;;70.70;43.13;;;27.60;99.90;;;;;;5033731;28;20156;-65
2023/08/02 00:45:06;;;;;;;74.05;49.35;;;27.60;99.90;;;;;;5058047;28;20024;-64
2023/08/02 00:47:34;;;;;;;63.05;41.63;;;27.60;99.90;;;;;;5073698;28;20047;-65
2023/08/02 00:50:04;;;;;;;65.75;40.50;;;27.50;99.90;;;;;;5073629;28;20016;-64
2023/08/02 00:52:31;;;;;;;64.45;41.17;;;27.50;99.90;;;;;;5073585;28;20024;-65
2023/08/02 00:54:57;;;;;;;65.88;40.08;;;27.50;99.90;;;;;;5073726;28;20063;-65
2023/08/02 00:57:24;;;;;;;67.40;46.85;;;27.50;99.90;;;;;;5072887;28;20035;-65
2023/08/02 00:59:50;;;;;;;63.22;37.50;;;27.50;99.90;;;;;;5053450;28;20017;-64
2023/08/02 01:02:17;;;;;;;71.70;49.85;;;27.50;99.90;;;;;;5053397;28;20021;-65
2023/08/02 01:04:47;;;;;;;119.57;60.25;;;27.50;99.90;;;;;;5053351;28;20045;-65
2023/08/02 01:07:24;;;;;;;110.63;60.85;;;27.60;99.90;;;;;;5053477;28;20055;-64
2023/08/02 01:09:59;;;;;;;68.75;42.35;;;27.60;99.90;;;;;;5068750;28;20412;-65
2023/08/02 01:12:27;;;;;;;107.22;62.47;;;27.60;99.90;;;;;;5073301;28;20033;-67
2023/08/02 01:14:58;;;;;;;69.65;44.47;;;27.60;99.90;;;;;;5073287;28;20078;-65
2023/08/02 01:17:25;;;;;;;79.53;48.83;;;27.70;99.90;;;;;;5073360;28;20020;-65
2023/08/02 01:19:52;;;;;;;117.45;72.97;;;27.60;99.90;;;;;;5073154;28;20032;-65
2023/08/02 01:22:20;;;;;;;94.82;58.95;;;27.70;99.90;;;;;;5073022;28;20040;-64
2023/08/02 01:24:47;;;;;;;72.28;48.17;;;27.70;99.90;;;;;;5073153;28;20082;-65
2023/08/02 01:27:19;;;;;;;78.35;48.85;;;27.80;99.90;;;;;;5073107;28;20504;-65
2023/08/02 01:29:50;;;;;;;70.07;43.95;;;27.70;99.90;;;;;;5073335;28;20107;-65
2023/08/02 01:32:18;;;;;;;132.38;67.03;;;27.80;99.90;;;;;;5073512;28;20107;-65
2023/08/02 01:34:45;;;;;;;82.88;53.47;;;27.80;99.90;;;;;;5072932;28;20073;-65
2023/08/02 01:37:11;;;;;;;68.72;44.65;;;27.80;99.90;;;;;;5073459;28;20499;-65
2023/08/02 01:39:38;;;;;;;87.43;59.30;;;27.80;99.90;;;;;;5073115;28;20048;-65
2023/08/02 01:42:04;;;;;;;93.20;57.30;;;27.90;99.90;;;;;;5072885;28;20117;-66
2023/08/02 01:44:31;;;;;;;64.30;45.55;;;27.90;99.90;;;;;;5073486;28;20024;-65
2023/08/02 01:46:57;;;;;;;85.43;45.63;;;27.90;99.90;;;;;;5073568;28;20013;-65
2023/08/02 01:49:24;;;;;;;85.65;52.95;;;27.90;99.90;;;;;;5073650;28;20426;-64
2023/08/02 01:51:50;;;;;;;105.63;73.95;;;27.90;99.90;;;;;;5073940;28;20024;-65
2023/08/02 01:54:17;;;;;;;68.57;43.55;;;27.90;99.90;;;;;;5071935;28;20028;-64
2023/08/02 01:56:44;;;;;;;65.82;43.88;;;28.00;99.90;;;;;;5056317;28;20029;-65
2023/08/02 01:59:12;;;;;;;75.28;43.95;;;28.00;99.90;;;;;;5057385;28;20033;-65
2023/08/02 02:01:39;;;;;;;71.72;46.92;;;28.00;99.90;;;;;;5057652;28;20059;-65
2023/08/02 02:04:06;;;;;;;82.63;50.78;;;28.00;99.90;;;;;;5061857;28;20028;-66
2023/08/02 02:06:32;;;;;;;76.80;47.75;;;28.10;99.90;;;;;;5075918;28;20115;-64
2023/08/02 02:08:59;;;;;;;109.63;68.45;;;28.10;99.90;;;;;;5066476;28;20025;-65
2023/08/02 02:11:25;;;;;;;74.35;47.75;;;28.20;99.90;;;;;;5058050;28;20096;-66
2023/08/02 02:13:52;;;;;;;69.05;43.30;;;28.20;99.90;;;;;;5057355;28;20052;-64
2023/08/02 02:16:18;;;;;;;64.35;40.88;;;28.20;99.90;;;;;;5057401;28;20052;-66
2023/08/02 02:18:45;;;;;;;73.22;43.28;;;28.20;99.90;;;;;;5057170;28;20029;-64
2023/08/02 02:21:11;;;;;;;75.55;42.42;;;28.20;99.90;;;;;;5057801;28;20028;-64
2023/08/02 02:23:38;;;;;;;61.80;37.80;;;28.20;99.90;;;;;;5057786;28;20139;-65
2023/08/02 02:26:04;;;;;;;68.82;41.03;;;28.20;99.90;;;;;;5057719;28;20036;-66
2023/08/02 02:28:31;;;;;;;70.47;41.83;;;28.20;99.90;;;;;;5057447;28;20440;-65
2023/08/02 02:30:57;;;;;;;88.57;57.60;;;28.20;99.90;;;;;;5057499;28;20082;-65
2023/08/02 02:33:24;;;;;;;63.45;44.03;;;28.20;99.90;;;;;;5057665;28;20539;-65
2023/08/02 02:35:50;;;;;;;62.17;40.28;;;28.20;99.90;;;;;;5057010;28;20511;-65
2023/08/02 02:38:17;;;;;;;68.03;39.50;;;28.30;99.90;;;;;;5056027;28;20037;-64
2023/08/02 02:40:43;;;;;;;66.50;44.33;;;28.30;99.90;;;;;;5056594;28;20104;-65
2023/08/02 02:43:10;;;;;;;66.18;42.03;;;28.30;99.90;;;;;;5055666;28;20071;-66
2023/08/02 02:45:36;;;;;;;63.15;41.15;;;28.40;99.90;;;;;;5056008;28;20382;-65
2023/08/02 02:48:03;;;;;;;54.42;36.65;;;28.50;99.90;;;;;;5056141;28;20104;-63
2023/08/02 02:50:29;;;;;;;67.65;39.03;;;28.50;99.90;;;;;;5055584;28;20478;-64
2023/08/02 02:52:56;;;;;;;66.60;39.55;;;28.60;99.90;;;;;;5055038;28;20036;-64
2023/08/02 02:55:22;;;;;;;63.78;38.90;;;28.60;99.90;;;;;;5054717;28;20036;-64
2023/08/02 02:57:50;;;;;;;69.68;40.92;;;28.70;99.90;;;;;;5055296;28;20485;-64
2023/08/02 03:00:17;;;;;;;62.25;38.90;;;28.70;99.90;;;;;;5055414;28;20490;-64
2023/08/02 03:02:44;;;;;;;67.03;40.53;;;28.80;99.90;;;;;;5055514;28;20029;-66
2023/08/02 03:05:10;;;;;;;58.88;39.22;;;28.90;99.90;;;;;;5055435;28;20021;-64
2023/08/02 03:07:37;;;;;;;59.00;38.13;;;29.00;99.90;;;;;;5054663;28;20029;-64
2023/08/02 03:10:04;;;;;;;54.92;36.75;;;29.00;99.90;;;;;;5055699;28;20100;-65
2023/08/02 03:12:30;;;;;;;57.03;35.65;;;29.00;99.90;;;;;;5055327;28;20367;-63
2023/08/02 03:14:57;;;;;;;56.58;36.95;;;29.10;99.90;;;;;;5055343;28;20191;-64
2023/08/02 03:17:23;;;;;;;47.47;32.08;;;29.20;99.90;;;;;;5055317;28;20036;-63
2023/08/02 03:19:50;;;;;;;40.70;26.17;;;29.20;99.90;;;;;;5055357;28;20104;-64
2023/08/02 03:22:16;;;;;;;44.78;27.50;;;29.30;99.90;;;;;;5055143;28;20473;-65
2023/08/02 03:24:43;;;;;;;43.33;26.38;;;29.40;99.90;;;;;;5055149;28;20033;-64
2023/08/02 03:27:09;;;;;;;42.00;26.80;;;29.50;99.90;;;;;;5055124;28;20075;-63
2023/08/02 03:29:36;;;;;;;44.97;26.92;;;29.50;99.90;;;;;;5056944;28;20025;-63
2023/08/02 03:32:03;;;;;;;41.42;24.42;;;29.60;99.90;;;;;;5064089;28;20108;-65
2023/08/02 03:34:30;;;;;;;36.88;22.48;;;29.60;99.90;;;;;;5055256;28;20029;-64
2023/08/02 03:36:56;;;;;;;32.53;20.77;;;29.70;99.90;;;;;;5054819;28;20033;-63
2023/08/02 03:39:27;;;;;;;33.10;20.33;;;29.70;99.90;;;;;;5055173;28;20104;-64
2023/08/02 03:41:54;;;;;;;39.38;21.70;;;29.70;99.90;;;;;;5054855;28;20108;-64
2023/08/02 03:44:21;;;;;;;34.35;21.27;;;29.80;99.90;;;;;;5054592;28;20390;-64
2023/08/02 03:46:48;;;;;;;37.40;21.25;;;29.80;99.90;;;;;;5054732;28;20036;-64
2023/08/02 03:49:14;;;;;;;34.20;21.00;;;29.90;99.90;;;;;;5054773;28;20021;-64
2023/08/02 03:51:41;;;;;;;37.05;18.10;;;29.90;99.90;;;;;;5054210;28;20036;-64
2023/08/02 03:54:08;;;;;;;25.63;16.00;;;29.90;99.90;;;;;;5054143;28;20436;-63
2023/08/02 03:56:34;;;;;;;31.08;16.65;;;29.90;99.90;;;;;;5054110;28;20056;-64
2023/08/02 03:59:01;;;;;;;30.58;18.58;;;29.90;99.90;;;;;;5053903;28;20086;-65
2023/08/02 04:01:27;;;;;;;30.25;17.38;;;30.00;99.90;;;;;;5054047;28;20536;-64
2023/08/02 04:03:54;;;;;;;28.30;16.65;;;30.00;99.90;;;;;;5054027;28;20044;-64
2023/08/02 04:06:20;;;;;;;34.40;17.35;;;30.00;99.90;;;;;;5053814;28;20112;-65
2023/08/02 04:08:47;;;;;;;25.25;14.98;;;30.10;99.90;;;;;;5053905;28;20025;-63
2023/08/02 04:11:14;;;;;;;36.50;23.98;;;30.10;99.90;;;;;;5052368;28;20419;-65
2023/08/02 04:13:41;;;;;;;55.40;33.58;;;30.10;99.90;;;;;;5053576;28;20060;-64
2023/08/02 04:16:07;;;;;;;28.98;16.63;;;30.20;99.90;;;;;;5065020;28;20089;-64
2023/08/02 04:18:34;;;;;;;31.38;16.02;;;30.20;99.90;;;;;;5055797;28;20099;-64
2023/08/02 04:21:00;;;;;;;28.13;15.57;;;30.30;99.90;;;;;;5061616;28;20531;-63
2023/08/02 04:23:27;;;;;;;31.50;15.38;;;30.30;99.90;;;;;;5053776;28;20029;-61
2023/08/02 04:25:54;;;;;;;25.92;15.82;;;30.40;99.90;;;;;;5053906;28;20095;-64
2023/08/02 04:28:20;;;;;;;31.48;16.08;;;30.40;99.90;;;;;;5053802;28;20017;-64
2023/08/02 04:30:56;;;;;;;24.83;16.27;;;30.40;99.90;;;;;;5053682;28;20032;-64
2023/08/02 04:33:22;;;;;;;28.17;17.48;;;30.40;99.90;;;;;;5054142;28;20028;-64
2023/08/02 04:35:49;;;;;;;35.42;18.20;;;30.40;99.90;;;;;;5071427;28;20071;-64
2023/08/02 04:38:15;;;;;;;47.58;31.00;;;30.50;99.90;;;;;;5064849;28;20024;-64
2023/08/02 04:40:42;;;;;;;57.08;35.65;;;30.60;99.90;;;;;;5073166;28;20024;-64
2023/08/02 04:43:08;;;;;;;62.78;41.17;;;30.70;99.90;;;;;;5073386;28;20024;-64
2023/08/02 04:45:35;;;;;;;46.65;26.85;;;30.80;99.90;;;;;;5073442;28;20488;-63
2023/08/02 04:48:01;;;;;;;35.20;20.30;;;30.80;99.90;;;;;;5073371;28;20035;-64
2023/08/02 04:50:28;;;;;;;26.85;17.35;;;30.80;99.90;;;;;;5073210;28;20211;-63
2023/08/02 04:52:54;;;;;;;28.85;17.27;;;30.80;99.90;;;;;;5073524;28;20039;-63
2023/08/02 04:55:21;;;;;;;26.85;17.20;;;30.90;99.90;;;;;;5073581;28;20027;-63
2023/08/02 04:57:48;;;;;;;28.83;18.13;;;30.90;99.90;;;;;;5066751;28;20381;-64
2023/08/02 05:00:15;;;;;;;32.67;17.50;;;30.90;99.90;;;;;;5032931;28;20026;-64
2023/08/02 05:02:42;;;;;;;41.45;21.55;;;31.00;99.90;;;;;;5033311;28;20030;-65
2023/08/02 05:05:09;;;;;;;33.83;17.80;;;31.00;99.90;;;;;;5035299;28;20032;-65
2023/08/02 05:07:37;;;;;;;26.55;17.23;;;31.10;99.90;;;;;;5054284;28;20389;-66
2023/08/02 05:10:04;;;;;;;26.73;16.02;;;31.10;99.90;;;;;;5053723;28;20025;-66
2023/08/02 05:12:34;;;;;;;30.52;18.55;;;31.20;99.90;;;;;;5056781;28;20408;-65
2023/08/02 05:15:00;;;;;;;26.00;16.50;;;31.30;99.90;;;;;;5061601;28;20025;-66
2023/08/02 05:17:29;;;;;;;31.50;20.60;;;31.40;99.90;;;;;;5053580;28;20021;-66
2023/08/02 05:19:56;;;;;;;49.13;34.28;;;31.40;99.90;;;;;;5053111;28;20029;-66
2023/08/02 05:22:23;;;;;;;47.60;31.35;;;31.60;99.90;;;;;;5053119;28;20378;-66
2023/08/02 05:24:50;;;;;;;42.78;25.33;;;31.60;99.90;;;;;;5053169;28;20029;-66
2023/08/02 05:27:17;;;;;;;53.38;36.60;;;31.60;99.90;;;;;;5053207;28;20529;-65
2023/08/02 05:29:44;;;;;;;26.90;18.38;;;31.60;99.90;;;;;;5053580;28;20452;-64
2023/08/02 05:32:11;;;;;;;25.75;15.95;;;31.60;99.90;;;;;;5057055;28;20029;-65
2023/08/02 05:34:37;;;;;;;26.10;15.35;;;31.60;99.90;;;;;;5057078;28;20474;-67
2023/08/02 05:37:04;;;;;;;22.83;15.02;;;31.70;99.90;;;;;;5056483;28;20132;-65
2023/08/02 05:39:31;;;;;;;25.15;15.05;;;31.80;99.90;;;;;;5046844;28;20049;-66
2023/08/02 05:41:57;;;;;;;24.70;14.30;;;31.90;99.90;;;;;;5046100;28;20016;-65
2023/08/02 05:44:24;;;;;;;23.63;14.43;;;31.90;99.90;;;;;;5048437;28;20028;-65
2023/08/02 05:46:50;;;;;;;23.90;13.48;;;31.80;99.90;;;;;;5046907;28;20489;-66
2023/08/02 05:49:17;;;;;;;111.68;83.85;;;31.80;99.90;;;;;;5046278;28;20021;-66
2023/08/02 05:51:44;;;;;;;37.88;24.67;;;31.80;99.90;;;;;;5047507;28;20088;-66
2023/08/02 05:54:10;;;;;;;30.30;16.45;;;31.90;99.90;;;;;;5046234;28;20021;-67
2023/08/02 05:56:37;;;;;;;59.65;35.10;;;31.90;99.90;;;;;;5055678;28;20070;-66
2023/08/02 05:59:03;;;;;;;142.65;92.78;;;31.90;99.90;;;;;;5055875;28;20378;-66
2023/08/02 06:01:30;;;;;;;27.40;17.95;;;32.00;99.90;;;;;;5052752;28;20027;-65
2023/08/02 06:03:56;;;;;;;26.30;15.07;;;31.90;99.90;;;;;;5047167;28;20018;-66
2023/08/02 06:06:23;;;;;;;28.15;14.88;;;32.00;99.90;;;;;;5045856;28;20492;-67
2023/08/02 06:08:50;;;;;;;22.58;12.85;;;32.10;99.90;;;;;;5047408;28;20099;-65
2023/08/02 06:11:16;;;;;;;17.65;12.05;;;32.10;99.90;;;;;;5047135;28;20047;-66
2023/08/02 06:13:43;;;;;;;22.02;13.13;;;32.10;99.90;;;;;;5040226;28;20502;-66
2023/08/02 06:16:09;;;;;;;20.75;13.38;;;32.10;99.90;;;;;;5037000;28;20037;-69
2023/08/02 06:18:36;;;;;;;19.60;12.07;;;32.10;99.90;;;;;;5067723;28;20086;-64
2023/08/02 06:21:02;;;;;;;70.88;61.05;;;32.10;99.90;;;;;;5056514;28;20108;-66
2023/08/02 06:23:29;;;;;;;51.95;42.55;;;32.10;99.90;;;;;;5056730;28;20087;-68
2023/08/02 06:25:55;;;;;;;80.03;65.72;;;32.20;99.90;;;;;;5056727;28;20017;-65
2023/08/02 06:28:22;;;;;;;20.30;12.02;;;32.30;99.90;;;;;;5056455;28;20044;-65
2023/08/02 06:30:49;;;;;;;20.52;13.18;;;32.30;99.90;;;;;;5056856;28;20024;-65
2023/08/02 06:33:16;;;;;;;18.38;12.55;;;32.30;99.90;;;;;;5056792;28;20025;-65
2023/08/02 06:35:42;;;;;;;25.63;14.05;;;32.40;99.90;;;;;;5057088;28;20053;-66
2023/08/02 06:38:08;;;;;;;18.75;12.65;;;32.40;99.90;;;;;;5057041;28;20017;-66
2023/08/02 06:40:35;;;;;;;25.48;14.95;;;32.50;99.90;;;;;;5072708;28;20090;-65
2023/08/02 06:43:01;;;;;;;19.45;12.98;;;32.50;99.90;;;;;;5054800;28;20493;-66
2023/08/02 06:45:28;;;;;;;26.00;13.90;;;32.50;99.90;;;;;;5055897;28;20017;-68
2023/08/02 06:47:55;;;;;;;24.33;13.40;;;32.50;99.90;;;;;;5055646;28;20045;-65
2023/08/02 06:50:21;;;;;;;19.05;12.25;;;32.50;99.90;;;;;;5056864;28;20090;-67
2023/08/02 06:52:48;;;;;;;27.38;14.35;;;32.60;99.90;;;;;;5055970;28;20025;-66
2023/08/02 06:55:14;;;;;;;20.77;13.40;;;32.60;99.90;;;;;;5056117;28;20424;-71
2023/08/02 06:57:41;;;;;;;36.63;24.38;;;32.60;99.90;;;;;;5055801;28;20021;-65
2023/08/02 07:00:08;;;;;;;24.60;16.60;;;32.60;99.90;;;;;;5055870;28;20419;-63
2023/08/02 07:02:35;;;;;;;22.33;14.27;;;32.70;99.90;;;;;;5056048;28;20047;-62
2023/08/02 07:05:01;;;;;;;24.75;14.05;;;32.80;99.90;;;;;;5055484;28;20028;-64
2023/08/02 07:07:28;;;;;;;25.10;14.23;;;32.80;99.90;;;;;;5055801;28;20080;-71
2023/08/02 07:09:54;;;;;;;24.42;15.65;;;32.80;99.90;;;;;;5055571;28;20073;-69
2023/08/02 07:12:21;;;;;;;27.60;15.60;;;32.70;99.90;;;;;;5055305;28;20063;-67
2023/08/02 07:14:47;;;;;;;19.65;14.18;;;32.70;99.90;;;;;;5055216;28;20021;-64
2023/08/02 07:17:14;;;;;;;29.20;16.02;;;32.60;99.90;;;;;;5055183;28;20033;-65
2023/08/02 07:19:40;;;;;;;23.05;15.15;;;32.70;99.90;;;;;;5054995;28;20023;-66
2023/08/02 07:22:07;;;;;;;22.25;14.77;;;32.70;99.90;;;;;;5054764;28;20021;-67
2023/08/02 07:24:33;;;;;;;23.38;14.38;;;32.70;99.90;;;;;;5055411;28;20021;-67
2023/08/02 07:27:00;;;;;;;21.98;14.10;;;32.80;99.90;;;;;;5065852;28;20017;-67
2023/08/02 07:29:26;;;;;;;25.35;15.70;;;32.90;99.90;;;;;;5054774;28;20025;-66
2023/08/02 07:31:53;;;;;;;21.95;13.98;;;32.90;99.90;;;;;;5055037;28;20104;-67
2023/08/02 07:34:20;;;;;;;29.42;14.75;;;33.00;99.90;;;;;;5054959;28;20025;-65
2023/08/02 07:36:46;;;;;;;19.25;13.93;;;33.00;99.90;;;;;;5054530;28;20045;-64
2023/08/02 07:39:13;;;;;;;21.48;13.88;;;33.00;99.90;;;;;;5058195;28;20048;-66
2023/08/02 07:41:39;;;;;;;23.85;14.10;;;32.90;99.90;;;;;;5072606;28;20107;-64
2023/08/02 07:44:06;;;;;;;21.55;14.32;;;32.90;99.90;;;;;;5071337;28;20059;-66
2023/08/02 07:46:32;;;;;;;28.27;15.68;;;32.90;99.90;;;;;;5074686;28;20370;-66
2023/08/02 07:48:59;;;;;;;34.50;18.75;;;32.80;99.90;;;;;;5074703;28;20024;-67
2023/08/02 07:51:26;;;;;;;30.17;19.17;;;32.80;99.90;;;;;;5074410;28;20466;-67
2023/08/02 07:53:52;;;;;;;29.83;17.08;;;32.80;99.90;;;;;;5074386;28;20020;-67
2023/08/02 07:56:21;;;;;;;28.50;15.70;;;32.80;99.90;;;;;;5074436;28;20054;-66
2023/08/02 07:58:47;;;;;;;28.67;17.92;;;32.70;99.90;;;;;;5074287;28;20025;-67
2023/08/02 08:01:14;;;;;;;28.52;18.15;;;32.70;99.90;;;;;;5066430;28;20106;-65
2023/08/02 08:03:40;;;;;;;28.02;15.95;;;32.80;99.90;;;;;;5054323;28;20507;-67
2023/08/02 08:06:20;;;;;;;29.13;16.25;;;32.80;99.90;;;;;;5054224;28;20497;-67
2023/08/02 08:08:48;;;;;;;26.65;16.77;;;32.90;99.90;;;;;;5054595;28;20024;-67
2023/08/02 08:11:15;;;;;;;26.70;15.75;;;33.00;99.90;;;;;;5054226;28;20029;-66
2023/08/02 08:13:41;;;;;;;28.38;17.02;;;33.10;99.90;;;;;;5054044;28;20094;-66
2023/08/02 08:16:08;;;;;;;103.63;73.93;;;33.10;99.90;;;;;;5054168;28;20029;-66
2023/08/02 08:18:36;;;;;;;18.25;13.15;;;33.10;99.90;;;;;;5054105;28;20095;-66
2023/08/02 08:21:04;;;;;;;68.00;47.65;;;33.20;99.90;;;;;;5054012;28;20393;-67
2023/08/02 08:23:31;;;;;;;21.65;12.93;;;33.10;99.90;;;;;;5054232;28;20082;-66
2023/08/02 08:25:58;;;;;;;20.00;12.35;;;33.20;99.90;;;;;;5054071;28;20108;-67
2023/08/02 08:28:24;;;;;;;55.42;41.55;;;33.20;99.90;;;;;;5053450;28;20104;-66
2023/08/02 08:31:00;;;;;;;20.83;13.90;;;33.20;99.90;;;;;;5054084;28;20044;-67
2023/08/02 08:33:27;;;;;;;23.80;15.00;;;33.30;99.90;;;;;;5053998;28;20111;-66
2023/08/02 08:35:53;;;;;;;77.35;51.20;;;33.20;99.90;;;;;;5053599;28;20045;-66
2023/08/02 08:38:20;;;;;;;38.33;23.83;;;33.10;99.90;;;;;;5054013;28;20575;-66
2023/08/02 08:40:50;;;;;;;51.00;37.22;;;33.20;99.90;;;;;;5053885;28;20032;-66
2023/08/02 08:43:17;;;;;;;57.00;39.45;;;33.20;99.90;;;;;;5053598;28;20043;-66
2023/08/02 08:45:44;;;;;;;41.25;28.98;;;33.30;99.90;;;;;;5053635;28;20078;-66
2023/08/02 08:48:12;;;;;;;58.45;41.42;;;33.30;99.90;;;;;;5053652;28;20358;-66
2023/08/02 08:50:41;;;;;;;41.70;25.55;;;33.30;99.90;;;;;;5053548;28;20049;-67
2023/08/02 08:53:14;;;;;;;21.35;14.93;;;33.30;99.90;;;;;;5053667;28;20418;-67
2023/08/02 08:55:41;;;;;;;59.97;39.63;;;33.30;99.90;;;;;;5053505;28;20102;-66
2023/08/02 08:58:08;;;;;;;50.17;34.67;;;33.30;99.90;;;;;;5052732;28;20020;-65
2023/08/02 09:00:36;;;;;;;20.38;13.32;;;33.20;99.90;;;;;;5042364;28;20033;-66
2023/08/02 09:03:03;;;;;;;18.70;11.38;;;33.10;99.90;;;;;;5053264;28;20029;-66
2023/08/02 09:05:31;;;;;;;21.50;12.32;;;33.20;99.90;;;;;;5047563;28;20036;-65
2023/08/02 09:07:58;;;;;;;22.77;12.43;;;33.20;99.90;;;;;;5061417;28;20016;-65
2023/08/02 09:10:26;;;;;;;22.13;12.18;;;33.20;99.90;;;;;;5058982;28;20063;-65
2023/08/02 09:12:53;;;;;;;18.90;12.60;;;33.20;99.90;;;;;;5046060;28;20060;-64
2023/08/02 09:15:20;;;;;;;20.50;14.52;;;33.20;99.90;;;;;;5037092;28;20037;-65
2023/08/02 09:17:54;;;;;;;23.63;15.98;;;33.20;99.90;;;;;;5045444;28;20124;-65
2023/08/02 09:20:24;;;;;;;26.30;16.85;;;33.20;99.90;;;;;;5059893;28;20448;-65
2023/08/02 09:22:51;;;;;;;24.00;15.38;;;33.20;99.90;;;;;;5046432;28;20024;-66
2023/08/02 09:25:29;;;;;;;26.33;14.85;;;33.20;99.90;;;;;;5042269;28;20036;-65
2023/08/02 09:27:58;;;;;;;29.90;15.45;;;33.20;99.90;;;;;;5033598;28;20060;-65
2023/08/02 09:30:29;;;;;;;25.20;16.33;;;33.20;99.90;;;;;;5044408;28;20386;-67
2023/08/02 09:33:08;;;;;;;24.30;15.25;;;33.20;99.90;;;;;;5036656;28;20021;-65
2023/08/02 09:35:55;;;;;;;30.85;16.10;;;33.20;99.90;;;;;;5042511;28;20128;-65
2023/08/02 09:38:21;;;;;;;30.58;18.30;;;33.20;99.90;;;;;;5053090;28;20561;-66
2023/08/02 09:40:48;;;;;;;27.77;17.17;;;33.30;99.90;;;;;;5033540;28;20040;-65
2023/08/02 09:43:18;;;;;;;23.85;17.50;;;33.30;99.90;;;;;;5037130;28;20037;-65
2023/08/02 09:45:45;;;;;;;25.35;16.50;;;33.20;99.90;;;;;;5062528;28;20382;-68
2023/08/02 09:48:11;;;;;;;19.70;15.52;;;33.10;99.90;;;;;;5053080;28;20112;-68
2023/08/02 09:51:03;;;;;;;22.42;15.45;;;33.20;99.90;;;;;;5052880;28;20017;-68
2023/08/02 09:53:29;;;;;;;21.70;15.50;;;33.10;99.90;;;;;;5052485;28;20031;-67
2023/08/02 09:55:58;;;;;;;30.55;19.48;;;33.10;99.90;;;;;;5053286;28;20029;-68
2023/08/02 09:58:27;;;;;;;36.08;19.65;;;33.10;99.90;;;;;;5052880;28;20086;-66
2023/08/02 10:00:55;;;;;;;32.17;19.02;;;33.10;99.90;;;;;;5052656;28;20029;-67
2023/08/02 10:03:23;;;;;;;37.20;15.98;;;33.00;99.90;;;;;;5052768;28;20474;-67
2023/08/02 10:05:50;;;;;;;22.02;14.75;;;32.90;99.90;;;;;;5052804;28;20482;-67
2023/08/02 10:08:17;;;;;;;29.98;16.58;;;32.80;99.90;;;;;;5052628;28;20028;-67
2023/08/02 10:10:45;;;;;;;30.45;17.27;;;32.70;99.90;;;;;;5051870;28;20162;-67
2023/08/02 10:13:19;;;;;;;25.63;14.80;;;32.60;99.90;;;;;;5042001;28;20025;-67
2023/08/02 10:15:49;;;;;;;31.30;12.77;;;32.50;99.90;;;;;;5054886;28;20033;-66
2023/08/02 10:18:17;;;;;;;32.60;12.55;;;32.40;99.90;;;;;;5076349;28;20051;-67
2023/08/02 10:20:47;;;;;;;27.45;13.63;;;32.30;99.90;;;;;;5076052;28;20056;-66
2023/08/02 10:23:13;;;;;;;23.30;12.50;;;32.30;99.90;;;;;;5076289;28;20493;-68
2023/08/02 10:25:42;;;;;;;30.10;13.52;;;32.20;99.90;;;;;;5075206;28;20074;-68
2023/08/02 10:28:10;;;;;;;27.95;13.63;;;32.10;99.90;;;;;;5047837;28;20025;-68
2023/08/02 10:30:37;;;;;;;24.70;12.00;;;32.10;99.90;;;;;;5036211;28;20032;-66
2023/08/02 10:33:14;;;;;;;25.88;12.77;;;32.00;99.90;;;;;;5044228;28;20035;-68
2023/08/02 10:36:02;;;;;;;33.35;19.17;;;31.90;99.90;;;;;;5041505;28;20402;-67
2023/08/02 10:38:48;;;;;;;15.15;10.45;;;31.80;99.90;;;;;;5035949;28;20056;-65
2023/08/02 10:41:16;;;;;;;19.70;11.65;;;31.70;99.90;;;;;;5046040;28;20478;-66
2023/08/02 10:43:55;;;;;;;25.70;16.08;;;31.70;99.90;;;;;;5055967;28;20039;-66
2023/08/02 10:46:24;;;;;;;70.65;42.88;;;31.70;99.90;;;;;;5056169;28;20056;-63
2023/08/02 10:48:52;;;;;;;35.08;21.75;;;31.60;99.90;;;;;;5042978;28;20032;-65
2023/08/02 10:51:38;;;;;;;28.20;17.13;;;31.50;99.90;;;;;;5036430;28;20017;-66
2023/08/02 10:54:25;;;;;;;28.77;17.80;;;31.50;99.90;;;;;;5036858;28;20482;-64
2023/08/02 10:56:52;;;;;;;28.73;17.17;;;31.50;99.90;;;;;;5038909;28;20033;-64
2023/08/02 10:59:28;;;;;;;27.23;15.00;;;31.40;99.90;;;;;;5045059;28;20025;-66
2023/08/02 11:01:57;;;;;;;28.23;15.10;;;31.30;99.90;;;;;;5036010;28;20475;-65
2023/08/02 11:04:25;;;;;;;29.98;16.92;;;31.30;99.90;;;;;;5036052;28;20060;-65
2023/08/02 11:06:52;;;;;;;26.38;14.95;;;31.30;99.90;;;;;;5036280;28;20025;-65
2023/08/02 11:09:36;;;;;;;29.67;15.98;;;31.30;99.90;;;;;;5035802;28;20017;-65
2023/08/02 11:12:21;;;;;;;29.00;14.75;;;31.20;99.90;;;;;;5041082;28;20048;-63
2023/08/02 11:14:50;;;;;;;34.50;17.27;;;31.10;99.90;;;;;;5040056;28;20022;-64
2023/08/02 11:17:20;;;;;;;37.35;19.30;;;31.20;99.90;;;;;;5035309;28;20032;-65
2023/08/02 11:19:51;;;;;;;31.48;17.98;;;31.10;99.90;;;;;;5034968;28;20017;-64
2023/08/02 11:22:19;;;;;;;35.75;17.58;;;31.10;99.90;;;;;;5035110;28;20029;-63
2023/08/02 11:24:56;;;;;;;48.08;25.15;;;31.10;99.90;;;;;;5035081;28;20025;-66
2023/08/02 11:27:26;;;;;;;48.42;27.27;;;31.20;99.90;;;;;;5036256;28;20017;-63
2023/08/02 11:30:04;;;;;;;41.22;24.50;;;31.10;99.90;;;;;;5044419;28;20022;-65
2023/08/02 11:32:32;;;;;;;34.25;18.88;;;31.10;99.90;;;;;;5034941;28;20402;-63
2023/08/02 11:35:00;;;;;;;43.10;23.40;;;31.10;99.90;;;;;;5034975;28;20379;-64
2023/08/02 11:37:27;;;;;;;28.92;20.73;;;31.10;99.90;;;;;;5047419;28;20032;-65
2023/08/02 11:39:57;;;;;;;35.80;20.48;;;31.10;99.90;;;;;;5034617;28;20043;-64
2023/08/02 11:42:25;;;;;;;32.85;18.88;;;31.00;99.90;;;;;;5034675;28;20057;-66
2023/08/02 11:44:52;;;;;;;37.25;19.65;;;31.00;99.90;;;;;;5038119;28;20456;-65
2023/08/02 11:47:19;;;;;;;36.45;18.92;;;31.00;99.90;;;;;;5043351;28;20538;-64
2023/08/02 11:49:59;;;;;;;32.75;19.23;;;31.00;99.90;;;;;;5034348;28;20072;-65
2023/08/02 11:52:26;;;;;;;38.15;19.65;;;31.00;99.90;;;;;;5034528;28;20117;-65
2023/08/02 11:54:53;;;;;;;31.77;17.42;;;31.00;99.90;;;;;;5041165;28;20029;-64
2023/08/02 11:57:22;;;;;;;98.30;72.38;;;30.90;99.90;;;;;;5039508;28;20128;-72
2023/08/02 11:59:52;;;;;;;42.03;25.42;;;30.90;99.90;;;;;;5042672;28;20025;-66
2023/08/02 12:02:29;;;;;;;37.00;24.15;;;30.90;99.90;;;;;;5043530;28;20016;-65
2023/08/02 12:04:56;;;;;;;50.38;25.30;;;30.90;99.90;;;;;;5034298;28;20036;-64
2023/08/02 12:07:35;;;;;;;50.50;32.83;;;30.90;99.90;;;;;;5033971;28;20025;-65
2023/08/02 12:10:04;;;;;;;42.75;20.38;;;30.90;99.90;;;;;;5055382;28;20048;-66
2023/08/02 12:12:33;;;;;;;36.25;20.17;;;30.80;99.90;;;;;;5046186;28;20034;-64
2023/08/02 12:15:10;;;;;;;33.60;20.98;;;30.80;99.90;;;;;;5044267;28;20070;-65
2023/08/02 12:17:37;;;;;;;24.25;15.30;;;30.80;99.90;;;;;;5046928;28;20083;-64
2023/08/02 12:20:06;;;;;;;23.27;15.32;;;30.70;99.90;;;;;;5049626;28;20008;-65
2023/08/02 12:22:48;;;;;;;31.20;17.42;;;30.70;99.90;;;;;;5047847;28;20060;-64
2023/08/02 12:25:15;;;;;;;29.20;17.20;;;30.80;99.90;;;;;;5045069;28;20038;-65
2023/08/02 12:27:41;;;;;;;30.80;17.10;;;30.70;99.90;;;;;;5046211;28;20069;-62
2023/08/02 12:30:11;;;;;;;36.25;17.10;;;30.70;99.90;;;;;;5044521;28;20027;-63